Time;durP1;ratioP1;P1;durP2;ratioP2;P2;SDS_P1;SDS_P2;PMS_P1;PMS_P2;Temp;Humidity;BMP_temperature;BMP_pressure;BME280_temperature;BME280_humidity;BME280_pressure;Samples;Min_cycle;Max_cycle;Signal;HPM_P1;HPM_P2
2021/11/28 00:02:26;;;;;;;;;3.50;2.25;;;;;22.04;37.13;99328.56;5003405;27;51182;-50
2021/11/28 00:04:53;;;;;;;;;3.00;1.00;;;;;22.00;36.49;99332.97;5027857;27;51164;-53
2021/11/28 00:13:07;;;;;;;;;2.75;1.50;;;;;21.85;36.80;99344.72;4996312;28;51148;-51
2021/11/28 00:15:33;;;;;;;;;1.25;0.50;;;;;21.79;36.74;99349.38;5008912;27;51242;-52
2021/11/28 00:17:58;;;;;;;;;2.00;2.00;;;;;21.75;36.65;99342.72;4999731;27;51084;-51
2021/11/28 00:20:24;;;;;;;;;3.00;3.00;;;;;21.71;36.49;99343.53;5003152;28;51144;-50
2021/11/28 00:22:50;;;;;;;;;1.75;1.75;;;;;21.64;36.55;99343.78;5001581;27;51037;-51
2021/11/28 00:25:18;;;;;;;;;1.75;1.75;;;;;21.62;36.70;99340.47;5008858;28;51060;-52
2021/11/28 00:27:45;;;;;;;;;3.00;2.00;;;;;21.57;36.71;99330.25;4998739;28;51120;-51
2021/11/28 00:30:19;;;;;;;;;0.75;0.75;;;;;21.53;36.64;99336.53;5000012;28;51359;-50
2021/11/28 00:32:45;;;;;;;;;1.00;0.75;;;;;21.50;36.78;99350.84;5000124;28;51136;-52
2021/11/28 00:35:10;;;;;;;;;1.50;1.25;;;;;21.44;36.46;99343.63;4990567;28;51196;-53
2021/11/28 00:37:36;;;;;;;;;3.00;1.25;;;;;21.42;36.49;99337.56;5006581;28;51771;-51
2021/11/28 00:40:02;;;;;;;;;1.00;1.00;;;;;21.38;36.45;99350.22;4989830;28;51212;-47
2021/11/28 00:42:28;;;;;;;;;1.00;1.00;;;;;21.34;36.50;99347.13;4989989;28;51107;-52
2021/11/28 00:44:54;;;;;;;;;4.00;2.00;;;;;21.30;36.40;99338.59;5000021;27;51430;-52
2021/11/28 00:47:19;;;;;;;;;1.00;1.00;;;;;21.27;36.67;99338.28;4999391;28;51879;-52
2021/11/28 00:52:39;;;;;;;;;1.00;1.00;;;;;21.20;36.90;99338.47;4978556;28;51497;-50
2021/11/28 00:55:07;;;;;;;;;1.00;1.00;;;;;21.16;36.22;99359.38;4999326;28;51132;-50
2021/11/28 00:57:34;;;;;;;;;1.25;1.25;;;;;21.14;36.49;99358.78;5000986;28;51122;-48
2021/11/28 01:00:05;;;;;;;;;1.00;0.25;;;;;21.09;36.68;99353.25;5003631;28;51076;-52
2021/11/28 01:02:30;;;;;;;;;1.50;1.50;;;;;21.08;36.28;99362.59;5002530;28;51156;-51
2021/11/28 01:04:56;;;;;;;;;2.50;1.00;;;;;21.06;36.54;99364.78;5000094;28;51106;-52
2021/11/28 01:07:21;;;;;;;;;3.00;2.00;;;;;21.02;36.58;99361.72;5000474;28;51745;-50
2021/11/28 01:09:47;;;;;;;;;1.50;1.50;;;;;21.00;36.58;99377.66;5000718;28;51148;-49
2021/11/28 01:12:12;;;;;;;;;1.00;1.00;;;;;20.98;36.67;99379.84;4997880;28;50998;-51
2021/11/28 01:14:38;;;;;;;;;1.00;1.00;;;;;20.93;36.31;99365.19;4995974;27;51066;-51
2021/11/28 01:17:05;;;;;;;;;0.75;0.75;;;;;20.92;37.05;99377.31;4992801;28;52696;-50
2021/11/28 01:19:31;;;;;;;;;2.25;1.00;;;;;20.89;36.52;99378.66;4992400;28;51124;-52
2021/11/28 01:22:00;;;;;;;;;2.00;2.00;;;;;20.87;36.74;99380.84;5006431;28;51099;-51
2021/11/28 01:24:26;;;;;;;;;1.00;1.00;;;;;20.83;36.37;99365.94;4985792;28;51494;-52
2021/11/28 01:26:53;;;;;;;;;1.25;1.25;;;;;20.81;36.37;99375.53;4986868;28;53065;-52
2021/11/28 01:29:18;;;;;;;;;1.00;1.00;;;;;20.78;36.87;99376.06;5008816;28;51570;-49
2021/11/28 01:31:43;;;;;;;;;1.25;1.25;;;;;20.75;36.84;99389.25;5011393;28;51262;-51
2021/11/28 01:34:09;;;;;;;;;1.00;0.50;;;;;20.73;36.67;99385.09;5012569;27;51261;-51
2021/11/28 01:36:36;;;;;;;;;2.25;1.00;;;;;20.72;36.51;99397.19;5007217;27;51344;-51
2021/11/28 01:39:04;;;;;;;;;0.00;0.00;;;;;20.69;36.51;99404.03;5005868;28;51188;-50
2021/11/28 01:41:30;;;;;;;;;0.75;0.75;;;;;20.66;36.53;99396.31;5005654;27;51154;-48
2021/11/28 01:43:57;;;;;;;;;1.00;1.00;;;;;20.65;36.37;99397.41;5040207;27;51331;-51
2021/11/28 01:46:23;;;;;;;;;1.50;1.00;;;;;20.63;36.95;99407.81;5007699;28;51824;-52
2021/11/28 01:48:49;;;;;;;;;1.00;1.00;;;;;20.62;36.42;99411.66;5007443;28;51089;-51
2021/11/28 01:51:15;;;;;;;;;1.00;0.25;;;;;20.60;36.46;99419.34;5008270;27;51538;-51
2021/11/28 01:53:41;;;;;;;;;1.00;0.50;;;;;20.56;36.66;99406.38;5006951;27;51196;-51
2021/11/28 01:56:06;;;;;;;;;0.75;0.75;;;;;20.55;36.66;99410.22;5005304;28;51054;-50
2021/11/28 01:58:32;;;;;;;;;1.75;0.50;;;;;20.54;36.61;99414.06;5006782;27;51104;-52
2021/11/28 02:01:01;;;;;;;;;0.50;0.50;;;;;20.52;36.58;99416.22;5004055;28;51238;-51
2021/11/28 02:03:27;;;;;;;;;0.00;0.00;;;;;20.50;36.85;99419.22;5002287;28;51480;-51
2021/11/28 02:05:57;;;;;;;;;2.00;2.00;;;;;20.47;36.88;99425.25;5005884;28;51076;-50
2021/11/28 02:08:22;;;;;;;;;3.00;1.25;;;;;20.44;36.59;99429.34;5004723;28;51435;-52
2021/11/28 02:10:49;;;;;;;;;0.50;0.50;;;;;20.42;36.63;99427.88;5002436;28;51125;-51
2021/11/28 02:13:20;;;;;;;;;1.50;0.50;;;;;20.40;36.62;99433.66;4985171;28;51145;-48
2021/11/28 02:15:45;;;;;;;;;0.00;0.00;;;;;20.37;36.91;99433.34;5002145;27;52060;-53
2021/11/28 02:18:11;;;;;;;;;1.00;1.00;;;;;20.35;36.57;99439.09;4985085;28;51102;-50
2021/11/28 02:20:46;;;;;;;;;0.00;0.00;;;;;20.35;36.84;99436.34;5011747;28;51146;-50
2021/11/28 02:23:12;;;;;;;;;0.25;0.25;;;;;20.33;36.27;99441.28;5004692;27;51029;-52
2021/11/28 02:25:38;;;;;;;;;0.00;0.00;;;;;20.31;36.43;99442.59;4999655;27;51044;-52
2021/11/28 02:28:04;;;;;;;;;2.00;1.00;;;;;20.30;36.52;99438.19;4981534;28;51227;-51
2021/11/28 02:30:29;;;;;;;;;0.75;0.00;;;;;20.28;36.95;99449.44;5003875;28;51287;-50
2021/11/28 02:32:59;;;;;;;;;1.50;1.00;;;;;20.27;36.79;99441.44;5001508;28;51304;-52
2021/11/28 02:35:27;;;;;;;;;1.00;0.00;;;;;20.25;36.63;99449.13;5004389;28;51203;-51
2021/11/28 02:37:53;;;;;;;;;1.00;1.00;;;;;20.23;36.66;99445.81;4998923;27;51484;-50
2021/11/28 02:40:22;;;;;;;;;1.75;1.00;;;;;20.22;36.61;99441.38;5002218;28;51180;-50
2021/11/28 02:42:49;;;;;;;;;0.75;0.75;;;;;20.21;36.77;99447.94;5002269;27;51176;-52
2021/11/28 02:45:15;;;;;;;;;0.00;0.00;;;;;20.18;36.77;99441.06;5009454;28;51039;-48
2021/11/28 02:47:41;;;;;;;;;0.00;0.00;;;;;20.17;36.62;99442.97;5002327;27;51026;-51
2021/11/28 02:50:07;;;;;;;;;0.00;0.00;;;;;20.14;36.64;99448.97;5012747;27;51205;-51
2021/11/28 02:52:33;;;;;;;;;0.25;0.25;;;;;20.13;36.73;99444.56;5008676;28;51135;-52
2021/11/28 02:54:59;;;;;;;;;2.75;0.00;;;;;20.10;36.51;99439.56;5004110;27;51183;-50
2021/11/28 02:57:25;;;;;;;;;1.00;0.00;;;;;20.11;36.75;99443.13;5009308;27;51398;-48
2021/11/28 02:59:50;;;;;;;;;1.00;1.00;;;;;20.09;36.80;99443.41;5006866;28;51218;-53
2021/11/28 03:02:16;;;;;;;;;0.00;0.00;;;;;20.08;36.84;99449.16;5002533;28;51156;-51
2021/11/28 03:04:42;;;;;;;;;0.75;0.75;;;;;20.05;36.94;99445.00;4996027;27;53094;-51
2021/11/28 03:07:07;;;;;;;;;0.75;0.00;;;;;20.05;36.90;99461.50;5004089;28;50994;-51
2021/11/28 03:09:32;;;;;;;;;1.00;0.00;;;;;20.05;37.01;99455.16;5002469;27;51041;-52
2021/11/28 03:11:58;;;;;;;;;1.00;0.50;;;;;20.03;36.86;99449.94;4995148;28;51045;-51
2021/11/28 03:14:23;;;;;;;;;0.00;0.00;;;;;20.01;36.62;99454.84;5004106;27;51813;-49
2021/11/28 03:16:49;;;;;;;;;0.00;0.00;;;;;20.00;36.58;99447.66;5009359;27;51336;-51
2021/11/28 03:19:14;;;;;;;;;1.00;1.00;;;;;19.99;36.91;99451.50;5004457;27;51253;-49
2021/11/28 03:21:41;;;;;;;;;0.00;0.00;;;;;19.99;36.61;99450.66;5006019;28;51096;-52
2021/11/28 03:24:08;;;;;;;;;0.00;0.00;;;;;19.97;36.62;99456.41;5001191;28;51161;-49
2021/11/28 03:26:39;;;;;;;;;1.25;0.25;;;;;19.96;36.70;99457.50;5007909;28;51131;-48
2021/11/28 03:29:15;;;;;;;;;2.00;0.75;;;;;19.95;36.82;99468.75;5000144;28;51304;-50
2021/11/28 03:31:45;;;;;;;;;0.00;0.00;;;;;19.95;36.96;99466.00;5003620;28;51455;-50
2021/11/28 03:34:13;;;;;;;;;0.00;0.00;;;;;19.93;36.68;99455.28;5003648;27;51084;-51
2021/11/28 03:36:49;;;;;;;;;0.25;0.00;;;;;19.93;36.77;99474.50;5003628;27;52330;-50
2021/11/28 03:39:18;;;;;;;;;0.00;0.00;;;;;19.92;36.93;99459.09;5007344;28;51301;-48
2021/11/28 03:41:47;;;;;;;;;0.00;0.00;;;;;19.90;37.14;99461.25;4999137;28;51188;-52
2021/11/28 03:44:13;;;;;;;;;0.00;0.00;;;;;19.89;36.75;99467.84;5002363;28;51143;-52
2021/11/28 03:46:39;;;;;;;;;0.75;0.00;;;;;19.88;36.90;99471.66;5011374;28;52293;-49
2021/11/28 03:49:05;;;;;;;;;0.00;0.00;;;;;19.87;36.88;99473.59;5005946;27;51001;-51
2021/11/28 03:51:30;;;;;;;;;0.00;0.00;;;;;19.86;37.01;99479.34;5004697;27;51307;-47
2021/11/28 03:53:56;;;;;;;;;0.00;0.00;;;;;19.85;36.77;99478.50;4997725;28;51165;-50
2021/11/28 03:56:23;;;;;;;;;0.25;0.00;;;;;19.84;37.15;99476.84;5001610;28;51368;-51
2021/11/28 03:58:48;;;;;;;;;0.00;0.00;;;;;19.83;36.97;99485.34;5003122;28;51145;-48
2021/11/28 04:01:15;;;;;;;;;1.00;0.00;;;;;19.83;36.90;99488.09;5006401;27;51327;-50
2021/11/28 04:03:41;;;;;;;;;0.00;0.00;;;;;19.80;37.00;99481.19;5000981;28;50966;-49
2021/11/28 04:06:07;;;;;;;;;0.00;0.00;;;;;19.80;37.02;99489.44;5003703;28;51045;-52
2021/11/28 04:08:33;;;;;;;;;0.00;0.00;;;;;19.78;36.72;99488.00;5002619;28;51029;-49
2021/11/28 04:10:58;;;;;;;;;0.00;0.00;;;;;19.78;36.86;99494.31;5003245;28;50907;-51
2021/11/28 04:13:24;;;;;;;;;0.00;0.00;;;;;19.76;36.70;99484.66;5002583;28;51822;-49
2021/11/28 04:15:50;;;;;;;;;0.00;0.00;;;;;19.77;36.94;99489.91;5009017;28;51165;-49
2021/11/28 04:18:16;;;;;;;;;0.00;0.00;;;;;19.76;37.03;99492.91;4992746;28;51088;-49
2021/11/28 04:20:42;;;;;;;;;0.00;0.00;;;;;19.73;36.95;99483.25;5015856;27;51096;-50
2021/11/28 04:23:08;;;;;;;;;0.00;0.00;;;;;19.74;36.79;99497.84;5002230;28;51839;-51
2021/11/28 04:25:34;;;;;;;;;0.00;0.00;;;;;19.71;36.97;99485.44;5000803;28;51283;-50
2021/11/28 04:27:59;;;;;;;;;0.00;0.00;;;;;19.72;36.82;99489.00;5007897;28;51048;-51
2021/11/28 04:30:26;;;;;;;;;1.00;0.00;;;;;19.72;37.04;99487.09;5009198;28;51081;-51
2021/11/28 04:32:52;;;;;;;;;0.00;0.00;;;;;19.71;36.92;99498.34;5005367;28;50992;-48
2021/11/28 04:35:18;;;;;;;;;0.00;0.00;;;;;19.68;37.09;99496.91;4993536;28;51182;-49
2021/11/28 04:37:43;;;;;;;;;0.00;0.00;;;;;19.69;37.01;99500.47;5011892;27;51201;-50
2021/11/28 04:40:09;;;;;;;;;0.00;0.00;;;;;19.67;36.95;99494.41;5009423;28;51239;-51
2021/11/28 04:42:35;;;;;;;;;0.00;0.00;;;;;19.66;37.28;99484.50;5003374;27;53313;-50
2021/11/28 04:45:00;;;;;;;;;0.25;0.00;;;;;19.65;37.03;99489.16;5001558;27;51227;-50
2021/11/28 04:47:26;;;;;;;;;1.25;0.00;;;;;19.62;37.03;99492.41;5009805;28;51182;-49
2021/11/28 04:49:51;;;;;;;;;0.00;0.00;;;;;19.63;36.77;99494.09;5001992;27;51222;-49
2021/11/28 04:52:17;;;;;;;;;0.00;0.00;;;;;19.62;36.72;99491.59;5009683;27;51894;-50
2021/11/28 04:54:43;;;;;;;;;0.00;0.00;;;;;19.62;37.26;99491.59;5010732;27;51078;-49
2021/11/28 04:57:09;;;;;;;;;0.00;0.00;;;;;19.60;37.06;99491.84;5005217;27;50998;-48
2021/11/28 04:59:34;;;;;;;;;0.00;0.00;;;;;19.60;36.95;99494.59;5012184;28;51018;-49
2021/11/28 05:02:00;;;;;;;;;0.00;0.00;;;;;19.58;36.89;99489.31;5008195;27;50998;-51
2021/11/28 05:04:26;;;;;;;;;0.50;0.50;;;;;19.57;37.30;99486.81;5003633;28;51065;-51
2021/11/28 05:06:52;;;;;;;;;0.00;0.00;;;;;19.56;37.23;99490.66;5003828;28;51268;-50
2021/11/28 05:09:17;;;;;;;;;0.00;0.00;;;;;19.56;37.04;99501.63;5004047;27;51059;-50
2021/11/28 05:11:43;;;;;;;;;0.00;0.00;;;;;19.55;36.84;99511.78;5003438;28;52187;-50
2021/11/28 05:14:09;;;;;;;;;0.50;0.00;;;;;19.53;36.66;99500.19;4997005;27;50962;-51
2021/11/28 05:16:35;;;;;;;;;1.25;0.25;;;;;19.52;36.85;99501.28;4998961;27;51095;-49
2021/11/28 05:19:00;;;;;;;;;0.00;0.00;;;;;19.53;36.99;99513.09;4994384;28;51395;-51
2021/11/28 05:21:26;;;;;;;;;0.00;0.00;;;;;19.52;37.09;99511.44;5002887;28;51218;-51
2021/11/28 05:23:52;;;;;;;;;1.00;1.00;;;;;19.50;37.27;99510.84;5000844;28;51060;-47
2021/11/28 05:26:17;;;;;;;;;0.00;0.00;;;;;19.49;37.18;99514.69;5011716;27;51304;-50
2021/11/28 05:28:43;;;;;;;;;0.00;0.00;;;;;19.48;36.89;99516.56;5015660;28;51126;-51
2021/11/28 05:31:11;;;;;;;;;0.00;0.00;;;;;19.46;36.78;99513.25;5010150;27;52117;-51
2021/11/28 05:33:37;;;;;;;;;0.00;0.00;;;;;19.47;36.64;99508.59;4999840;27;51183;-50
2021/11/28 05:36:02;;;;;;;;;0.00;0.00;;;;;19.45;36.86;99517.06;5006109;27;51178;-51
2021/11/28 05:38:27;;;;;;;;;1.00;0.00;;;;;19.44;37.36;99515.41;5006056;28;51234;-49
2021/11/28 05:40:53;;;;;;;;;0.25;0.00;;;;;19.43;36.88;99522.00;5004797;27;51709;-51
2021/11/28 05:43:18;;;;;;;;;0.00;0.00;;;;;19.42;37.28;99535.97;5006902;28;51089;-48
2021/11/28 05:45:44;;;;;;;;;0.00;0.00;;;;;19.41;37.10;99535.13;5008447;28;51302;-52
2021/11/28 05:48:09;;;;;;;;;0.25;0.00;;;;;19.39;36.93;99529.06;5009667;27;51135;-46
2021/11/28 05:50:34;;;;;;;;;0.00;0.00;;;;;19.41;37.03;99531.56;5007181;27;52008;-48
2021/11/28 05:53:00;;;;;;;;;0.00;0.00;;;;;19.40;37.30;99535.38;5011913;27;50971;-47
2021/11/28 05:55:26;;;;;;;;;0.50;0.00;;;;;19.38;36.93;99543.84;5005378;28;51191;-47
2021/11/28 05:57:52;;;;;;;;;0.00;0.00;;;;;19.38;37.03;99543.03;5005264;28;51268;-50
2021/11/28 06:00:20;;;;;;;;;0.00;0.00;;;;;19.36;36.94;99546.00;5009174;28;51163;-51
2021/11/28 06:02:45;;;;;;;;;0.00;0.00;;;;;19.37;37.21;99538.59;5011906;28;50984;-48
2021/11/28 06:05:11;;;;;;;;;0.00;0.00;;;;;19.35;36.89;99540.78;5004560;27;51306;-50
2021/11/28 06:07:37;;;;;;;;;0.00;0.00;;;;;19.34;37.05;99539.94;4999116;28;51447;-49
2021/11/28 06:10:03;;;;;;;;;0.00;0.00;;;;;19.34;37.19;99548.19;5004479;28;51146;-50
2021/11/28 06:12:29;;;;;;;;;0.50;0.50;;;;;19.33;36.98;99549.25;5006304;27;51338;-50
2021/11/28 06:14:54;;;;;;;;;0.00;0.00;;;;;19.33;36.95;99557.50;5034587;27;51540;-46
2021/11/28 06:17:20;;;;;;;;;0.00;0.00;;;;;19.30;37.29;99552.50;5004008;27;51233;-48
2021/11/28 06:19:45;;;;;;;;;0.00;0.00;;;;;19.30;36.96;99555.25;5002826;28;52821;-52
2021/11/28 06:22:10;;;;;;;;;0.00;0.00;;;;;19.30;37.14;99560.75;4983036;28;51165;-48
2021/11/28 06:24:38;;;;;;;;;0.00;0.00;;;;;19.28;37.07;99549.19;5008857;28;51144;-47
2021/11/28 06:27:05;;;;;;;;;0.00;0.00;;;;;19.27;37.27;99563.97;4996275;28;51530;-49
2021/11/28 06:29:30;;;;;;;;;0.00;0.00;;;;;19.28;37.24;99560.16;5004692;27;51872;-48
2021/11/28 06:31:56;;;;;;;;;0.00;0.00;;;;;19.26;36.86;99565.03;5005200;27;51100;-50
2021/11/28 06:34:22;;;;;;;;;0.00;0.00;;;;;19.27;37.02;99572.19;5002337;28;51060;-49
2021/11/28 06:36:47;;;;;;;;;0.00;0.00;;;;;19.25;37.10;99575.19;5003817;28;51200;-51
2021/11/28 06:39:12;;;;;;;;;0.00;0.00;;;;;19.26;37.25;99573.28;5002074;28;51166;-50
2021/11/28 06:41:38;;;;;;;;;1.00;0.00;;;;;19.24;37.05;99573.53;5007679;28;51223;-50
2021/11/28 06:44:03;;;;;;;;;0.00;0.00;;;;;19.24;37.28;99578.19;5003407;28;51072;-50
2021/11/28 06:46:29;;;;;;;;;1.00;0.00;;;;;19.22;36.95;99574.84;5008574;27;51094;-49
2021/11/28 06:48:54;;;;;;;;;0.00;0.00;;;;;19.22;37.20;99577.59;4997763;27;52031;-49
2021/11/28 06:51:20;;;;;;;;;0.00;0.00;;;;;19.21;37.28;99579.50;5010515;28;52378;-49
2021/11/28 06:53:45;;;;;;;;;0.00;0.00;;;;;19.21;37.14;99587.75;5011520;27;51512;-47
2021/11/28 06:56:10;;;;;;;;;0.00;0.00;;;;;19.20;37.11;99588.81;5003049;28;51136;-47
2021/11/28 06:58:36;;;;;;;;;0.00;0.00;;;;;19.19;37.15;99592.66;5008781;27;50960;-50
2021/11/28 07:01:03;;;;;;;;;0.00;0.00;;;;;19.18;37.04;99595.66;5004406;27;51096;-49
2021/11/28 07:03:28;;;;;;;;;0.00;0.00;;;;;19.18;37.21;99599.22;4995158;28;51207;-50
2021/11/28 07:05:54;;;;;;;;;0.25;0.00;;;;;19.18;37.06;99598.41;5020384;27;51479;-53
2021/11/28 07:08:19;;;;;;;;;0.00;0.00;;;;;19.14;37.17;99605.44;5002276;28;51467;-51
2021/11/28 07:10:45;;;;;;;;;0.00;0.00;;;;;19.13;37.37;99607.34;5001687;28;51122;-49
2021/11/28 07:13:10;;;;;;;;;0.75;0.75;;;;;19.13;37.07;99603.75;5001172;28;51108;-50
2021/11/28 07:15:37;;;;;;;;;0.00;0.00;;;;;19.14;37.30;99620.00;5005479;27;51340;-52
2021/11/28 07:18:03;;;;;;;;;0.00;0.00;;;;;19.14;37.34;99624.66;5002670;28;52313;-52
2021/11/28 07:20:30;;;;;;;;;0.00;0.00;;;;;19.12;37.07;99616.66;5006028;28;50903;-52
2021/11/28 07:22:57;;;;;;;;;0.00;0.00;;;;;19.12;37.33;99624.06;5009609;27;51349;-47
2021/11/28 07:25:22;;;;;;;;;0.00;0.00;;;;;19.12;37.43;99629.53;5003086;27;51159;-51
2021/11/28 07:27:47;;;;;;;;;1.25;0.00;;;;;19.10;37.52;99623.47;5029255;27;51926;-50
2021/11/28 07:30:13;;;;;;;;;0.00;0.00;;;;;19.12;37.47;99633.13;5010931;28;51652;-49
2021/11/28 07:32:38;;;;;;;;;1.00;0.00;;;;;19.11;37.34;99633.38;5011619;27;51202;-50
2021/11/28 07:35:04;;;;;;;;;0.00;0.00;;;;;19.10;37.43;99643.53;5007311;27;51209;-49
2021/11/28 07:37:30;;;;;;;;;0.00;0.00;;;;;19.11;37.35;99649.84;5007187;28;51066;-50
2021/11/28 07:39:56;;;;;;;;;0.00;0.00;;;;;19.09;37.35;99647.34;5004165;28;51194;-51
2021/11/28 07:42:22;;;;;;;;;0.00;0.00;;;;;19.09;37.27;99661.06;5010012;28;51463;-50
2021/11/28 07:44:48;;;;;;;;;0.00;0.00;;;;;19.06;37.10;99658.78;4999882;27;51203;-60
2021/11/28 07:47:13;;;;;;;;;0.00;0.00;;;;;19.07;37.47;99670.59;5043548;27;52702;-49
2021/11/28 07:49:39;;;;;;;;;0.00;0.00;;;;;19.03;37.57;99679.31;5000096;27;51177;-46
2021/11/28 07:52:04;;;;;;;;;0.00;0.00;;;;;18.99;37.27;99688.28;5000553;27;51293;-46
2021/11/28 07:54:29;;;;;;;;;0.00;0.00;;;;;18.91;37.25;99670.28;5010187;28;50973;-50
2021/11/28 07:56:55;;;;;;;;;0.00;0.00;;;;;18.91;37.24;99672.19;4994698;28;52673;-50
2021/11/28 07:59:20;;;;;;;;;0.00;0.00;;;;;18.93;37.36;99681.00;5001421;28;51174;-48
2021/11/28 08:01:45;;;;;;;;;2.00;0.25;;;;;19.00;37.74;99684.47;5004942;27;51221;-46
2021/11/28 08:04:11;;;;;;;;;0.00;0.00;;;;;19.08;37.56;99686.03;4998050;28;51158;-48
2021/11/28 08:06:36;;;;;;;;;1.00;0.00;;;;;19.15;37.82;99682.03;4997234;27;51179;-52
2021/11/28 08:09:02;;;;;;;;;0.50;0.00;;;;;19.25;38.20;99698.75;4997671;27;51106;-51
2021/11/28 08:11:28;;;;;;;;;0.00;0.00;;;;;19.33;38.04;99700.28;5004206;28;51952;-51
2021/11/28 08:13:54;;;;;;;;;0.00;0.00;;;;;19.41;38.16;99699.91;5009041;27;51356;-51
2021/11/28 08:16:19;;;;;;;;;0.00;0.00;;;;;19.47;38.26;99698.91;5003259;27;51246;-52
2021/11/28 08:18:45;;;;;;;;;0.00;0.00;;;;;19.57;38.57;99712.91;4996646;27;51124;-51
2021/11/28 08:21:10;;;;;;;;;0.50;0.00;;;;;19.64;38.30;99700.94;4991272;27;51463;-51
2021/11/28 08:23:36;;;;;;;;;0.00;0.00;;;;;19.72;38.54;99706.06;4999502;28;51328;-49
2021/11/28 08:26:01;;;;;;;;;0.00;0.00;;;;;19.77;38.27;99712.47;5004305;28;52020;-50
2021/11/28 08:28:27;;;;;;;;;0.00;0.00;;;;;19.84;38.40;99706.84;5001200;27;51072;-45
2021/11/28 08:30:52;;;;;;;;;1.50;0.00;;;;;19.93;38.25;99721.88;5006781;27;51229;-49
2021/11/28 08:33:18;;;;;;;;;0.00;0.00;;;;;20.00;38.03;99722.53;5001594;28;51437;-49
2021/11/28 08:35:43;;;;;;;;;1.00;0.00;;;;;20.05;38.16;99719.91;5040097;27;52000;-50
2021/11/28 08:38:09;;;;;;;;;0.00;0.00;;;;;20.12;38.37;99719.75;4998559;28;51034;-52
2021/11/28 08:40:38;;;;;;;;;0.00;0.00;;;;;20.19;38.45;99723.16;4992842;27;51267;-49
2021/11/28 08:43:05;;;;;;;;;1.00;1.00;;;;;20.27;38.26;99717.28;4998909;27;51009;-48
2021/11/28 08:45:32;;;;;;;;;1.75;0.00;;;;;20.37;38.71;99727.63;5002492;27;51664;-47
2021/11/28 08:47:57;;;;;;;;;1.00;0.00;;;;;20.45;38.37;99724.50;5011405;28;51420;-51
2021/11/28 08:50:23;;;;;;;;;1.50;0.00;;;;;20.54;38.23;99731.25;5004938;28;51238;-53
2021/11/28 08:52:48;;;;;;;;;0.00;0.00;;;;;20.60;38.19;99732.16;4994790;27;50972;-49
2021/11/28 08:55:16;;;;;;;;;0.00;0.00;;;;;20.66;38.40;99729.25;5012493;27;51014;-51
2021/11/28 08:57:42;;;;;;;;;1.00;1.00;;;;;20.72;38.36;99742.00;5029278;27;51347;-52
2021/11/28 09:00:10;;;;;;;;;1.00;0.25;;;;;20.79;37.94;99741.00;5009006;28;51273;-50
2021/11/28 09:02:35;;;;;;;;;0.00;0.00;;;;;20.82;38.31;99735.81;4999383;27;51743;-50
2021/11/28 09:05:01;;;;;;;;;0.00;0.00;;;;;20.91;38.51;99745.34;5010745;27;51143;-53
2021/11/28 09:07:27;;;;;;;;;1.75;0.00;;;;;20.97;38.63;99749.84;4998347;27;52691;-52
2021/11/28 09:09:52;;;;;;;;;3.00;0.00;;;;;21.06;38.42;99753.00;5005602;28;51193;-51
2021/11/28 09:12:18;;;;;;;;;0.50;0.00;;;;;21.10;38.03;99754.16;5007093;27;51371;-49
2021/11/28 09:14:43;;;;;;;;;0.00;0.00;;;;;21.16;38.58;99752.34;5030155;27;52144;-52
2021/11/28 09:17:09;;;;;;;;;0.00;0.00;;;;;21.23;38.47;99772.25;5002093;28;51052;-52
2021/11/28 09:25:02;;;;;;;;;0.00;0.00;;;;;21.33;38.44;99765.00;4999346;28;51647;-52
2021/11/28 09:27:29;;;;;;;;;0.00;0.00;;;;;21.38;38.18;99772.50;5008976;27;51172;-50
2021/11/28 09:29:54;;;;;;;;;0.00;0.00;;;;;21.42;37.70;99770.06;4996285;28;51380;-49
2021/11/28 09:32:20;;;;;;;;;0.25;0.25;;;;;21.49;37.89;99785.34;5005173;27;51148;-49
2021/11/28 09:34:46;;;;;;;;;1.00;0.00;;;;;21.51;37.77;99779.56;5002991;27;53010;-49
2021/11/28 09:37:12;;;;;;;;;0.50;0.00;;;;;21.53;37.78;99786.50;4997696;28;51136;-50
2021/11/28 09:39:43;;;;;;;;;0.25;0.00;;;;;21.55;37.49;99788.97;4999763;28;51152;-52
2021/11/28 09:42:11;;;;;;;;;0.00;0.00;;;;;21.56;37.34;99797.00;4996917;28;51156;-52
2021/11/28 09:44:38;;;;;;;;;1.00;1.00;;;;;21.59;37.79;99795.66;5007466;28;52007;-49
2021/11/28 09:47:09;;;;;;;;;0.00;0.00;;;;;21.64;37.54;99797.66;5014659;27;51504;-51
2021/11/28 09:49:35;;;;;;;;;1.00;0.75;;;;;21.68;37.63;99801.59;5005827;28;51095;-52
2021/11/28 09:52:06;;;;;;;;;2.00;0.75;;;;;21.71;37.56;99801.06;5000144;27;51354;-48
2021/11/28 09:54:36;;;;;;;;;0.25;0.00;;;;;21.74;37.47;99815.16;5001008;27;52118;-49
2021/11/28 09:57:02;;;;;;;;;1.50;1.25;;;;;21.75;37.00;99796.69;5002628;28;51105;-52
2021/11/28 09:59:29;;;;;;;;;1.75;1.00;;;;;21.79;36.96;99800.63;4997618;28;51193;-52
2021/11/28 10:01:56;;;;;;;;;0.00;0.00;;;;;21.79;36.61;99806.13;5004762;27;51100;-52
2021/11/28 10:04:21;;;;;;;;;1.25;0.75;;;;;21.81;37.30;99807.53;5005747;28;52046;-48
2021/11/28 10:06:47;;;;;;;;;1.75;1.75;;;;;21.84;36.82;99809.78;4998800;28;51416;-51
2021/11/28 10:09:13;;;;;;;;;1.75;1.50;;;;;21.87;37.04;99800.97;5000167;27;51339;-52
2021/11/28 10:11:41;;;;;;;;;0.50;0.50;;;;;21.89;36.91;99804.34;5005034;28;51324;-50
2021/11/28 10:14:09;;;;;;;;;2.75;1.00;;;;;21.94;36.82;99814.59;5003034;28;51184;-54
2021/11/28 10:16:35;;;;;;;;;1.50;1.00;;;;;21.96;36.73;99814.31;5005044;28;51035;-54
2021/11/28 10:19:01;;;;;;;;;3.50;0.50;;;;;22.00;36.86;99823.78;5005488;28;51234;-50
2021/11/28 10:21:27;;;;;;;;;0.25;0.25;;;;;22.04;36.89;99811.13;5003614;28;52056;-50
2021/11/28 10:24:14;;;;;;;;;1.00;1.00;;;;;22.06;37.42;99807.03;5005014;27;52050;-51
2021/11/28 10:26:56;;;;;;;;;3.75;0.00;;;;;22.12;37.42;99808.78;5008578;27;51085;-51
2021/11/28 10:29:30;;;;;;;;;1.00;0.25;;;;;22.15;37.49;99816.53;5009874;28;51327;-52
2021/11/28 10:31:58;;;;;;;;;0.75;0.75;;;;;22.18;36.93;99815.16;5010812;28;51116;-50
2021/11/28 10:34:26;;;;;;;;;2.50;1.00;;;;;22.21;36.92;99809.16;5008755;28;52184;-51
2021/11/28 10:37:02;;;;;;;;;0.50;0.00;;;;;22.24;37.36;99803.13;5009682;28;51799;-54
2021/11/28 10:39:28;;;;;;;;;1.75;1.75;;;;;22.26;37.04;99808.38;5004058;28;51139;-53
2021/11/28 10:41:57;;;;;;;;;1.00;1.00;;;;;22.29;36.60;99816.94;5006482;27;51061;-52
2021/11/28 10:44:25;;;;;;;;;1.75;0.00;;;;;22.30;36.58;99799.34;4997196;27;51936;-56
2021/11/28 10:46:57;;;;;;;;;1.25;1.25;;;;;22.33;36.71;99796.06;5002673;28;51116;-51
2021/11/28 10:49:24;;;;;;;;;0.50;0.25;;;;;22.35;37.08;99796.63;5004527;28;51206;-52
2021/11/28 10:52:05;;;;;;;;;0.50;0.50;;;;;22.37;36.87;99802.69;5002145;27;51206;-52
2021/11/28 10:54:34;;;;;;;;;1.50;0.50;;;;;22.39;36.54;99811.53;5000750;28;52534;-50
2021/11/28 10:57:06;;;;;;;;;0.75;0.75;;;;;22.39;36.56;99806.03;4980694;28;50986;-51
2021/11/28 10:59:32;;;;;;;;;0.00;0.00;;;;;22.40;36.63;99813.22;5004346;28;51196;-53
2021/11/28 11:01:58;;;;;;;;;1.00;1.00;;;;;22.43;36.70;99806.38;5021293;27;51113;-51
2021/11/28 11:04:23;;;;;;;;;0.75;0.75;;;;;22.45;36.76;99809.69;5006329;28;51586;-52
2021/11/28 11:07:13;;;;;;;;;1.50;0.75;;;;;22.47;37.04;99794.53;5011160;28;50957;-52
2021/11/28 11:09:44;;;;;;;;;0.50;0.50;;;;;22.47;37.49;99805.56;5010249;28;51176;-55
2021/11/28 11:12:19;;;;;;;;;2.00;1.50;;;;;22.44;37.72;99810.78;5002679;28;51079;-55
2021/11/28 11:14:57;;;;;;;;;0.25;0.25;;;;;22.35;37.45;99807.66;5116477;27;51429;-42
2021/11/28 11:17:24;;;;;;;;;1.75;1.75;;;;;22.29;38.24;99808.69;5123539;27;51152;-44
2021/11/28 11:19:49;;;;;;;;;0.00;0.00;;;;;22.23;37.96;99809.72;5105559;27;51172;-44
2021/11/28 11:22:15;;;;;;;;;3.25;1.25;;;;;22.15;37.51;99805.50;5088505;27;51795;-41
2021/11/28 11:24:51;;;;;;;;;1.00;1.00;;;;;22.08;37.63;99804.03;5088487;27;51024;-43
2021/11/28 11:27:27;;;;;;;;;1.00;1.00;;;;;22.04;37.58;99808.38;5084990;27;51093;-45
2021/11/28 11:29:56;;;;;;;;;1.50;1.00;;;;;22.03;37.60;99807.53;5091685;27;51289;-44
2021/11/28 11:32:24;;;;;;;;;1.25;1.25;;;;;22.05;37.86;99810.03;5091739;27;51734;-43
2021/11/28 11:34:53;;;;;;;;;1.00;1.00;;;;;22.09;37.65;99808.44;5092027;27;52163;-43
2021/11/28 11:37:20;;;;;;;;;3.00;1.50;;;;;22.13;37.33;99813.22;5089080;27;51090;-50
2021/11/28 11:39:48;;;;;;;;;4.00;2.00;;;;;22.16;37.76;99803.56;5087730;27;51791;-44
2021/11/28 11:42:16;;;;;;;;;4.00;1.50;;;;;22.18;37.81;99804.13;5090325;27;52986;-44
2021/11/28 11:44:44;;;;;;;;;2.00;1.25;;;;;22.23;37.61;99811.66;5081280;27;51214;-41
2021/11/28 11:47:10;;;;;;;;;1.25;1.00;;;;;22.24;37.64;99802.28;5089256;27;51253;-44